Burlington, Vermont
Current Conditions -  °F | °C
As of 11:09 AM on Thursday 27 Nov 2014 (Local Time) from KBTV Reporting Station
Overcast Overcast  
Wind Chill: -4°   Ceiling: 2600
Heat Index: -1°   Visibility: 10mi
Dew Point: -6°   Wind: 6mph
Humidity: 72%   Direction: 30°NNE
Pressure: 30.03"   Gusts: NA
Location:  44.48°N, 73.21°W
Report Text: KBTV 271609Z 03005KT 10SM BKN026 OVC035 M01/M06 A3003 RMK AO2 T10111056
Loading
Personal Weather Stations






























Interactive Weather Map New forecast layout! Learn more

10-Day Weather Forecast

Advertisements
Track Severe Weather on mobile